Time;durP1;ratioP1;P1;durP2;ratioP2;P2;SDS_P1;SDS_P2;PMS_P1;PMS_P2;Temp;Humidity;BMP_temperature;BMP_pressure;BME280_temperature;BME280_humidity;BME280_pressure;Samples;Min_cycle;Max_cycle;Signal;HPM_P1;HPM_P2
2021/04/26 00:01:46;;;;;;;6.90;2.08;;;;;;;;;;5081032;28;32076;-74
2021/04/26 00:04:12;;;;;;;8.38;1.70;;;;;;;;;;5080685;28;32708;-74
2021/04/26 00:06:38;;;;;;;5.65;1.50;;;;;;;;;;5080970;28;32248;-74
2021/04/26 00:09:04;;;;;;;8.02;1.48;;;;;;;;;;5081273;28;31988;-75
2021/04/26 00:11:29;;;;;;;4.45;1.65;;;;;;;;;;5080925;28;31869;-74
2021/04/26 00:13:55;;;;;;;8.27;1.83;;;;;;;;;;5080829;28;32275;-74
2021/04/26 00:16:21;;;;;;;8.55;2.25;;;;;;;;;;5081051;28;33214;-73
2021/04/26 00:18:46;;;;;;;8.15;1.60;;;;;;;;;;5081206;28;32522;-73
2021/04/26 00:21:12;;;;;;;9.65;2.33;;;;;;;;;;5081132;28;32093;-74
2021/04/26 00:23:38;;;;;;;10.52;1.60;;;;;;;;;;5079699;28;30911;-73
2021/04/26 00:26:03;;;;;;;7.85;1.80;;;;;;;;;;5079742;28;32218;-73
2021/04/26 00:28:29;;;;;;;8.77;2.00;;;;;;;;;;5080539;28;31907;-74
2021/04/26 00:30:55;;;;;;;11.52;2.20;;;;;;;;;;5079414;28;32063;-74
2021/04/26 00:33:20;;;;;;;8.07;2.33;;;;;;;;;;5079291;28;35224;-71
2021/04/26 00:35:46;;;;;;;8.30;2.08;;;;;;;;;;5080650;28;32361;-72
2021/04/26 00:38:12;;;;;;;8.05;2.10;;;;;;;;;;5079744;28;31897;-72
2021/04/26 00:40:37;;;;;;;10.73;1.83;;;;;;;;;;5080667;28;32070;-71
2021/04/26 00:43:03;;;;;;;5.22;1.20;;;;;;;;;;5079339;28;31019;-71
2021/04/26 00:45:29;;;;;;;8.27;1.83;;;;;;;;;;5079806;28;30884;-72
2021/04/26 00:47:55;;;;;;;6.82;1.60;;;;;;;;;;5080810;28;31984;-72
2021/04/26 00:50:23;;;;;;;10.20;1.90;;;;;;;;;;5080807;28;32148;-71
2021/04/26 00:52:49;;;;;;;6.63;1.80;;;;;;;;;;5080376;28;32311;-72
2021/04/26 00:55:15;;;;;;;19.30;1.95;;;;;;;;;;5080130;28;32373;-73
2021/04/26 00:57:41;;;;;;;10.10;2.00;;;;;;;;;;5080665;28;32937;-73
2021/04/26 01:00:08;;;;;;;13.40;1.60;;;;;;;;;;5080464;28;32964;-72
2021/04/26 01:02:38;;;;;;;8.90;1.48;;;;;;;;;;5079055;28;31719;-72
2021/04/26 01:05:05;;;;;;;7.30;1.90;;;;;;;;;;5080369;28;33221;-72
2021/04/26 01:07:34;;;;;;;7.95;1.60;;;;;;;;;;5080307;28;31870;-72
2021/04/26 01:10:01;;;;;;;8.43;2.20;;;;;;;;;;5080595;28;32213;-72
2021/04/26 01:12:33;;;;;;;7.38;1.73;;;;;;;;;;5078892;28;31115;-71
2021/04/26 01:15:09;;;;;;;6.30;1.73;;;;;;;;;;5080163;28;32467;-71
2021/04/26 01:17:37;;;;;;;9.82;1.70;;;;;;;;;;5082313;28;32214;-71
2021/04/26 01:20:06;;;;;;;14.00;2.08;;;;;;;;;;5083617;28;32027;-72
2021/04/26 01:22:36;;;;;;;10.32;2.35;;;;;;;;;;5082616;28;31106;-72
2021/04/26 01:25:14;;;;;;;10.13;2.22;;;;;;;;;;5083545;28;32357;-73
2021/04/26 01:27:46;;;;;;;12.43;2.35;;;;;;;;;;5081643;28;31802;-74
2021/04/26 01:30:28;;;;;;;9.90;2.22;;;;;;;;;;5083167;28;32096;-73
2021/04/26 01:33:17;;;;;;;5.85;2.08;;;;;;;;;;5082006;28;32205;-74
2021/04/26 01:35:48;;;;;;;14.00;1.85;;;;;;;;;;5082356;28;31127;-72
2021/04/26 01:38:35;;;;;;;8.45;1.88;;;;;;;;;;5081831;28;31657;-72
2021/04/26 01:41:01;;;;;;;12.45;1.98;;;;;;;;;;5081853;28;32058;-73
2021/04/26 01:43:29;;;;;;;8.70;1.73;;;;;;;;;;5082323;28;31437;-72
2021/04/26 01:45:59;;;;;;;6.82;1.88;;;;;;;;;;5082242;28;30866;-72
2021/04/26 01:48:28;;;;;;;9.40;1.83;;;;;;;;;;5085437;28;30455;-73
2021/04/26 01:50:58;;;;;;;10.00;2.65;;;;;;;;;;5087475;28;32099;-73
2021/04/26 01:53:25;;;;;;;12.88;1.88;;;;;;;;;;5083998;28;33444;-75
2021/04/26 01:55:55;;;;;;;10.00;2.63;;;;;;;;;;5081664;28;32578;-74
2021/04/26 01:58:21;;;;;;;7.32;1.88;;;;;;;;;;5082944;28;31770;-75
2021/04/26 02:00:47;;;;;;;6.53;1.80;;;;;;;;;;5081699;28;30523;-74
2021/04/26 02:03:14;;;;;;;7.35;2.00;;;;;;;;;;5082977;28;33706;-73
2021/04/26 02:05:50;;;;;;;9.70;1.80;;;;;;;;;;5082639;28;32387;-74
2021/04/26 02:08:17;;;;;;;7.25;1.48;;;;;;;;;;5065023;28;30415;-74
2021/04/26 02:10:45;;;;;;;9.75;1.83;;;;;;;;;;5081521;28;31642;-73
2021/04/26 02:13:17;;;;;;;7.63;1.75;;;;;;;;;;5081516;28;32187;-73
2021/04/26 02:15:47;;;;;;;4.30;1.73;;;;;;;;;;5080009;28;32107;-73
2021/04/26 02:18:13;;;;;;;16.45;2.65;;;;;;;;;;5081430;28;30299;-73
2021/04/26 02:20:39;;;;;;;7.25;1.80;;;;;;;;;;5080866;28;30153;-73
2021/04/26 02:23:06;;;;;;;7.72;1.88;;;;;;;;;;5082780;28;32661;-73
2021/04/26 02:25:31;;;;;;;8.00;2.13;;;;;;;;;;5081583;28;30861;-73
2021/04/26 02:27:58;;;;;;;6.30;1.50;;;;;;;;;;5079972;28;30468;-73
2021/04/26 02:30:24;;;;;;;6.60;2.35;;;;;;;;;;5080786;28;30477;-71
2021/04/26 02:32:53;;;;;;;5.72;1.73;;;;;;;;;;5064082;28;31336;-73
2021/04/26 02:35:35;;;;;;;7.65;2.00;;;;;;;;;;5081048;28;30874;-73
2021/04/26 02:38:03;;;;;;;8.00;2.13;;;;;;;;;;5080812;28;30661;-73
2021/04/26 02:40:31;;;;;;;15.50;1.98;;;;;;;;;;5082263;28;32944;-73
2021/04/26 02:42:59;;;;;;;3.88;1.38;;;;;;;;;;5080782;28;31021;-73
2021/04/26 02:45:29;;;;;;;6.95;1.75;;;;;;;;;;5080784;28;31499;-73
2021/04/26 02:47:56;;;;;;;8.95;2.20;;;;;;;;;;5081120;28;31574;-73
2021/04/26 02:50:26;;;;;;;6.05;1.60;;;;;;;;;;5081841;28;32994;-72
2021/04/26 02:53:02;;;;;;;6.40;1.63;;;;;;;;;;5080623;28;31042;-73
2021/04/26 02:55:28;;;;;;;3.40;1.65;;;;;;;;;;5082186;28;32422;-73
2021/04/26 02:57:56;;;;;;;4.50;2.17;;;;;;;;;;5080737;28;31699;-73
2021/04/26 03:00:23;;;;;;;8.73;1.98;;;;;;;;;;5080593;28;30584;-72
2021/04/26 03:03:07;;;;;;;10.43;1.60;;;;;;;;;;5079368;28;33179;-73
2021/04/26 03:05:34;;;;;;;6.32;1.70;;;;;;;;;;5080363;28;31159;-71
2021/04/26 03:08:00;;;;;;;8.55;2.10;;;;;;;;;;5082015;28;31956;-73
2021/04/26 03:10:26;;;;;;;7.40;2.13;;;;;;;;;;5080910;28;30684;-73
2021/04/26 03:12:52;;;;;;;8.00;1.70;;;;;;;;;;5082116;28;33385;-72
2021/04/26 03:15:25;;;;;;;7.60;2.13;;;;;;;;;;5081728;28;33376;-72
2021/04/26 03:17:51;;;;;;;6.40;1.60;;;;;;;;;;5081315;28;32004;-73
2021/04/26 03:20:18;;;;;;;6.90;1.95;;;;;;;;;;5080174;28;30487;-72
2021/04/26 03:23:03;;;;;;;5.18;1.50;;;;;;;;;;5078879;28;33301;-73
2021/04/26 03:25:31;;;;;;;10.70;2.20;;;;;;;;;;5080620;28;31799;-72
2021/04/26 03:27:58;;;;;;;9.18;2.03;;;;;;;;;;5079839;28;31911;-72
2021/04/26 03:30:28;;;;;;;8.52;1.95;;;;;;;;;;5080658;28;30719;-72
2021/04/26 03:33:08;;;;;;;9.70;2.20;;;;;;;;;;5080557;28;30966;-72
2021/04/26 03:35:34;;;;;;;11.65;2.25;;;;;;;;;;5081561;28;33296;-72
2021/04/26 03:38:00;;;;;;;6.93;1.92;;;;;;;;;;5080247;28;30527;-72
2021/04/26 03:40:26;;;;;;;5.70;1.52;;;;;;;;;;5080710;28;32246;-73
2021/04/26 03:42:58;;;;;;;12.80;2.28;;;;;;;;;;5079693;28;30925;-72
2021/04/26 03:45:30;;;;;;;9.35;2.05;;;;;;;;;;5081306;28;32385;-72
2021/04/26 03:48:14;;;;;;;11.18;2.15;;;;;;;;;;5078754;28;32692;-72
2021/04/26 03:51:00;;;;;;;11.10;2.42;;;;;;;;;;5080191;28;31499;-72
2021/04/26 03:53:26;;;;;;;12.50;2.88;;;;;;;;;;5081484;28;33669;-74
2021/04/26 03:56:14;;;;;;;7.85;2.17;;;;;;;;;;5083081;28;33440;-72
2021/04/26 03:58:40;;;;;;;13.18;2.40;;;;;;;;;;5081503;28;32087;-73
2021/04/26 04:04:18;;;;;;;7.13;2.10;;;;;;;;;;5081436;28;34079;-72
2021/04/26 04:07:09;;;;;;;5.75;2.97;;;;;;;;;;5078721;28;32897;-71
2021/04/26 04:09:54;;;;;;;12.80;3.20;;;;;;;;;;5081301;28;33444;-72
2021/04/26 04:12:30;;;;;;;9.48;2.47;;;;;;;;;;5079421;28;30576;-72
2021/04/26 04:15:09;;;;;;;9.98;2.63;;;;;;;;;;5080993;28;32659;-71
2021/04/26 04:17:39;;;;;;;6.50;2.17;;;;;;;;;;5079837;28;32379;-72
2021/04/26 04:20:06;;;;;;;11.73;1.98;;;;;;;;;;5080873;28;32873;-72
2021/04/26 04:22:36;;;;;;;6.53;2.35;;;;;;;;;;5079794;28;30678;-72
2021/04/26 04:25:02;;;;;;;8.52;2.28;;;;;;;;;;5080668;28;32629;-71
2021/04/26 04:27:28;;;;;;;5.90;2.20;;;;;;;;;;5078983;28;31848;-72
2021/04/26 04:29:54;;;;;;;8.73;2.50;;;;;;;;;;5080949;28;32883;-72
2021/04/26 04:32:38;;;;;;;9.18;2.30;;;;;;;;;;5078081;28;32684;-73
2021/04/26 04:35:22;;;;;;;12.20;2.40;;;;;;;;;;5080755;28;33131;-73
2021/04/26 04:38:07;;;;;;;8.60;2.15;;;;;;;;;;5080846;28;33766;-73
2021/04/26 04:40:51;;;;;;;14.88;2.38;;;;;;;;;;5077735;28;32549;-73
2021/04/26 04:43:22;;;;;;;5.13;1.60;;;;;;;;;;5077742;28;32738;-73
2021/04/26 04:45:53;;;;;;;10.73;2.42;;;;;;;;;;5080382;28;32543;-73
2021/04/26 04:48:40;;;;;;;8.57;2.83;;;;;;;;;;5081236;28;33436;-73
2021/04/26 04:51:12;;;;;;;6.35;1.80;;;;;;;;;;5079516;28;30792;-73
2021/04/26 04:53:43;;;;;;;5.93;2.20;;;;;;;;;;5082439;28;31670;-74
2021/04/26 04:56:09;;;;;;;11.10;2.50;;;;;;;;;;5082802;28;31411;-74
2021/04/26 04:58:38;;;;;;;10.13;2.30;;;;;;;;;;5083980;28;32523;-74
2021/04/26 05:01:06;;;;;;;9.43;2.83;;;;;;;;;;5082554;28;31343;-74
2021/04/26 05:03:50;;;;;;;8.50;2.25;;;;;;;;;;5084090;28;33499;-73
2021/04/26 05:06:35;;;;;;;13.48;2.70;;;;;;;;;;5081202;28;33388;-74
2021/04/26 05:09:19;;;;;;;5.75;2.58;;;;;;;;;;5080883;28;37288;-74
2021/04/26 05:12:04;;;;;;;6.43;2.55;;;;;;;;;;5084042;28;32506;-74
2021/04/26 05:14:52;;;;;;;7.88;2.20;;;;;;;;;;5091534;28;32937;-73
2021/04/26 05:17:20;;;;;;;16.15;2.13;;;;;;;;;;5082586;28;32591;-74
2021/04/26 05:19:45;;;;;;;10.43;2.40;;;;;;;;;;5083834;28;32288;-74
2021/04/26 05:22:11;;;;;;;11.00;2.55;;;;;;;;;;5083787;28;31896;-73
2021/04/26 05:24:38;;;;;;;6.45;2.05;;;;;;;;;;5082226;28;30567;-74
2021/04/26 05:27:07;;;;;;;7.82;2.65;;;;;;;;;;5082005;28;31284;-72
2021/04/26 05:29:34;;;;;;;10.57;2.35;;;;;;;;;;5082735;28;32511;-75
2021/04/26 05:32:01;;;;;;;7.68;2.25;;;;;;;;;;5082219;28;30351;-71
2021/04/26 05:34:26;;;;;;;14.05;2.35;;;;;;;;;;5082551;28;31050;-75
2021/04/26 05:36:53;;;;;;;6.13;2.65;;;;;;;;;;5081960;28;31785;-74
2021/04/26 05:39:19;;;;;;;9.02;3.13;;;;;;;;;;5083477;28;32244;-76
2021/04/26 05:41:45;;;;;;;12.02;2.83;;;;;;;;;;5081638;28;30791;-74
2021/04/26 05:44:12;;;;;;;7.85;2.38;;;;;;;;;;5082018;28;31122;-75
2021/04/26 05:46:49;;;;;;;9.20;2.70;;;;;;;;;;5084514;28;30997;-75
2021/04/26 05:49:15;;;;;;;8.98;2.60;;;;;;;;;;5085846;28;31074;-76
2021/04/26 05:51:42;;;;;;;9.10;2.30;;;;;;;;;;5086391;28;32083;-73
2021/04/26 05:54:09;;;;;;;9.73;2.45;;;;;;;;;;5084625;28;33020;-76
2021/04/26 05:56:36;;;;;;;11.82;2.30;;;;;;;;;;5084862;28;32530;-76
2021/04/26 05:59:02;;;;;;;11.57;2.80;;;;;;;;;;5089817;28;32563;-77
2021/04/26 06:01:28;;;;;;;8.07;2.30;;;;;;;;;;5087709;28;31886;-74
2021/04/26 06:03:53;;;;;;;13.07;2.50;;;;;;;;;;5086872;28;31847;-75
2021/04/26 06:06:19;;;;;;;5.93;1.55;;;;;;;;;;5083489;28;33032;-73
2021/04/26 06:08:45;;;;;;;5.25;1.98;;;;;;;;;;5083025;28;32473;-74
2021/04/26 06:11:11;;;;;;;6.45;2.35;;;;;;;;;;5081850;28;30567;-75
2021/04/26 06:13:36;;;;;;;7.38;2.10;;;;;;;;;;5083274;28;31750;-74
2021/04/26 06:16:02;;;;;;;2.67;1.50;;;;;;;;;;5082969;28;33462;-74
2021/04/26 06:18:28;;;;;;;6.28;2.17;;;;;;;;;;5082679;28;33301;-72
2021/04/26 06:20:54;;;;;;;5.78;2.40;;;;;;;;;;5082453;28;31183;-75
2021/04/26 06:23:20;;;;;;;9.90;2.60;;;;;;;;;;5082104;28;32111;-72
2021/04/26 06:25:46;;;;;;;4.97;1.80;;;;;;;;;;5080862;28;30840;-73
2021/04/26 06:28:12;;;;;;;12.23;3.30;;;;;;;;;;5082057;28;32287;-73
2021/04/26 06:30:38;;;;;;;5.65;1.85;;;;;;;;;;5082406;28;31921;-72
2021/04/26 06:33:04;;;;;;;7.70;2.20;;;;;;;;;;5082131;28;32980;-71
2021/04/26 06:35:30;;;;;;;5.47;1.90;;;;;;;;;;5082325;28;32644;-72
2021/04/26 06:37:56;;;;;;;3.22;1.08;;;;;;;;;;5082483;28;32248;-72
2021/04/26 06:40:22;;;;;;;4.30;2.17;;;;;;;;;;5082628;28;31833;-75
2021/04/26 06:42:48;;;;;;;6.10;2.35;;;;;;;;;;5081828;28;32127;-72
2021/04/26 06:45:20;;;;;;;3.80;1.90;;;;;;;;;;5082126;28;32465;-73
2021/04/26 06:47:56;;;;;;;6.43;1.88;;;;;;;;;;5079617;28;32453;-74
2021/04/26 06:50:22;;;;;;;13.30;2.58;;;;;;;;;;5079079;28;31786;-73
2021/04/26 06:52:48;;;;;;;5.63;1.60;;;;;;;;;;5081693;28;32070;-76
2021/04/26 06:55:14;;;;;;;6.35;2.40;;;;;;;;;;5080698;28;31059;-81
2021/04/26 06:57:40;;;;;;;5.63;2.63;;;;;;;;;;5080980;28;30681;-81
2021/04/26 07:00:07;;;;;;;7.60;2.67;;;;;;;;;;5081818;28;31369;-75
2021/04/26 07:02:32;;;;;;;11.48;3.25;;;;;;;;;;5081963;28;32093;-73
2021/04/26 07:04:58;;;;;;;10.63;2.85;;;;;;;;;;5082211;28;32520;-71
2021/04/26 07:07:24;;;;;;;9.65;2.25;;;;;;;;;;5081914;28;33056;-73
2021/04/26 07:09:50;;;;;;;6.18;2.63;;;;;;;;;;5081908;28;32274;-73
2021/04/26 07:12:16;;;;;;;9.48;2.80;;;;;;;;;;5081828;28;32741;-79
2021/04/26 07:14:42;;;;;;;10.50;2.83;;;;;;;;;;5080884;28;33608;-74
2021/04/26 07:17:08;;;;;;;7.25;2.60;;;;;;;;;;5081713;28;38372;-77
2021/04/26 07:19:33;;;;;;;10.00;2.70;;;;;;;;;;5081780;28;31588;-78
2021/04/26 07:21:59;;;;;;;13.25;2.17;;;;;;;;;;5081731;28;32720;-74
2021/04/26 07:24:25;;;;;;;10.90;3.00;;;;;;;;;;5081632;28;32576;-78
2021/04/26 07:26:50;;;;;;;6.45;2.92;;;;;;;;;;5081602;28;32861;-72
2021/04/26 07:29:16;;;;;;;7.25;2.50;;;;;;;;;;5081838;28;31939;-76
2021/04/26 07:31:42;;;;;;;12.65;2.65;;;;;;;;;;5081607;28;32178;-76
2021/04/26 07:34:07;;;;;;;15.30;3.33;;;;;;;;;;5081210;28;33647;-72
2021/04/26 07:36:33;;;;;;;4.43;2.42;;;;;;;;;;5081203;28;32428;-72
2021/04/26 07:38:59;;;;;;;12.90;3.00;;;;;;;;;;5081406;28;31194;-74
2021/04/26 07:41:25;;;;;;;13.07;3.53;;;;;;;;;;5080996;28;32641;-72
2021/04/26 07:43:50;;;;;;;9.52;2.85;;;;;;;;;;5079561;28;31085;-71
2021/04/26 07:46:16;;;;;;;10.82;2.58;;;;;;;;;;5081288;28;31855;-71
2021/04/26 07:48:42;;;;;;;12.23;3.15;;;;;;;;;;5081082;28;32020;-74
2021/04/26 07:51:07;;;;;;;8.75;3.33;;;;;;;;;;5080737;28;32029;-78
2021/04/26 07:53:34;;;;;;;14.32;3.47;;;;;;;;;;5081228;28;33302;-76
2021/04/26 07:56:00;;;;;;;9.93;3.05;;;;;;;;;;5080546;28;33120;-77
2021/04/26 07:58:25;;;;;;;7.00;3.03;;;;;;;;;;5079820;28;31589;-73
2021/04/26 08:00:51;;;;;;;7.50;2.60;;;;;;;;;;5080555;28;32776;-71
2021/04/26 08:03:17;;;;;;;8.00;3.08;;;;;;;;;;5080808;28;32512;-77
2021/04/26 08:05:43;;;;;;;13.25;3.45;;;;;;;;;;5080724;28;32301;-73
2021/04/26 08:08:09;;;;;;;4.78;1.85;;;;;;;;;;5080961;28;32970;-76
2021/04/26 08:10:35;;;;;;;11.15;3.22;;;;;;;;;;5079736;28;30750;-73
2021/04/26 08:13:01;;;;;;;11.55;3.03;;;;;;;;;;5081039;28;32484;-78
2021/04/26 08:15:27;;;;;;;7.97;3.92;;;;;;;;;;5080809;28;33275;-76
2021/04/26 08:17:53;;;;;;;7.68;2.47;;;;;;;;;;5081109;28;32833;-74
2021/04/26 08:20:18;;;;;;;7.68;2.70;;;;;;;;;;5080811;28;32004;-72
2021/04/26 08:22:44;;;;;;;9.35;3.85;;;;;;;;;;5081085;28;33695;-76
2021/04/26 08:25:10;;;;;;;11.90;3.67;;;;;;;;;;5080788;28;31716;-76
2021/04/26 08:27:36;;;;;;;14.63;3.80;;;;;;;;;;5081793;28;32936;-78
2021/04/26 08:30:03;;;;;;;10.90;3.60;;;;;;;;;;5084455;28;32972;-78
2021/04/26 08:32:29;;;;;;;10.52;3.03;;;;;;;;;;5084673;28;31847;-78
2021/04/26 08:34:54;;;;;;;10.90;2.38;;;;;;;;;;5084229;28;33247;-76
2021/04/26 08:37:21;;;;;;;7.97;2.88;;;;;;;;;;5084483;28;31992;-75
2021/04/26 08:39:47;;;;;;;11.30;3.50;;;;;;;;;;5084143;28;32977;-73
2021/04/26 08:42:16;;;;;;;6.97;2.75;;;;;;;;;;5083759;28;32479;-74
2021/04/26 08:44:41;;;;;;;9.52;3.90;;;;;;;;;;5084507;28;32578;-73
2021/04/26 08:47:08;;;;;;;8.45;3.58;;;;;;;;;;5084544;28;32051;-70
2021/04/26 08:49:33;;;;;;;7.72;3.30;;;;;;;;;;5082634;28;30329;-79
2021/04/26 08:51:59;;;;;;;11.07;3.65;;;;;;;;;;5083997;28;33845;-72
2021/04/26 08:54:25;;;;;;;9.30;4.20;;;;;;;;;;5084077;28;32452;-71
2021/04/26 08:56:51;;;;;;;9.77;3.17;;;;;;;;;;5082592;28;30771;-74
2021/04/26 08:59:16;;;;;;;8.85;3.63;;;;;;;;;;5080861;28;32085;-71
2021/04/26 09:01:57;;;;;;;11.88;3.83;;;;;;;;;;5083799;28;32355;-72
2021/04/26 09:04:23;;;;;;;15.10;4.28;;;;;;;;;;5080994;28;32353;-72
2021/04/26 09:06:51;;;;;;;9.43;3.65;;;;;;;;;;5082457;28;30823;-71
2021/04/26 09:09:36;;;;;;;12.32;4.05;;;;;;;;;;5083492;28;32153;-74
2021/04/26 09:12:02;;;;;;;4.47;1.85;;;;;;;;;;5082251;28;32528;-75
2021/04/26 09:14:44;;;;;;;10.68;3.35;;;;;;;;;;5083622;28;32296;-75
2021/04/26 09:17:28;;;;;;;9.98;3.30;;;;;;;;;;5083596;28;31996;-72
2021/04/26 09:19:55;;;;;;;7.55;2.60;;;;;;;;;;5083591;28;31986;-73
2021/04/26 09:22:41;;;;;;;9.88;2.72;;;;;;;;;;5083250;28;33521;-77
2021/04/26 09:25:25;;;;;;;14.52;3.85;;;;;;;;;;5083391;28;31996;-74
2021/04/26 09:27:51;;;;;;;5.78;3.25;;;;;;;;;;5082342;28;31919;-75
2021/04/26 09:30:52;;;;;;;10.88;2.50;;;;;;;;;;5083472;28;32013;-77
2021/04/26 09:33:18;;;;;;;6.68;2.78;;;;;;;;;;5080185;28;32723;-73
2021/04/26 09:35:44;;;;;;;9.25;2.30;;;;;;;;;;5082160;28;32436;-83
2021/04/26 09:38:28;;;;;;;13.20;3.38;;;;;;;;;;5083000;28;31938;-78
2021/04/26 09:41:09;;;;;;;4.57;2.20;;;;;;;;;;5080825;28;31988;-73
2021/04/26 09:43:36;;;;;;;8.07;3.50;;;;;;;;;;5082518;28;32773;-79
2021/04/26 09:46:01;;;;;;;;;;;;;;;;;;5081586;28;32117;-73
2021/04/26 09:48:29;;;;;;;11.30;3.70;;;;;;;;;;5083808;28;31788;-76
2021/04/26 09:50:55;;;;;;;8.65;3.72;;;;;;;;;;5083142;28;32536;-76
2021/04/26 09:53:24;;;;;;;8.63;3.55;;;;;;;;;;5082944;28;32446;-76
2021/04/26 09:55:51;;;;;;;11.35;2.60;;;;;;;;;;5083002;28;32604;-76
2021/04/26 09:58:17;;;;;;;13.18;3.40;;;;;;;;;;5082885;28;32972;-75
2021/04/26 10:00:46;;;;;;;7.93;3.00;;;;;;;;;;5082871;28;32023;-74
2021/04/26 10:03:15;;;;;;;5.55;3.30;;;;;;;;;;5082708;28;32534;-75
2021/04/26 10:05:40;;;;;;;;;;;;;;;;;;5083953;28;32360;-70
2021/04/26 10:08:06;;;;;;;;;;;;;;;;;;5081385;28;31822;-75
2021/04/26 10:10:31;;;;;;;;;;;;;;;;;;5084865;28;32236;-70
2021/04/26 10:12:57;;;;;;;;;;;;;;;;;;5085842;28;32928;-68
2021/04/26 10:15:22;;;;;;;;;;;;;;;;;;5093591;28;33279;-69
2021/04/26 10:17:48;;;;;;;;;;;;;;;;;;5091761;28;31967;-69
2021/04/26 10:20:15;;;;;;;;;;;;;;;;;;5085366;28;32417;-70
2021/04/26 10:22:43;;;;;;;3.50;1.58;;;;;;;;;;5082032;28;31542;-72
2021/04/26 10:25:10;;;;;;;3.08;1.55;;;;;;;;;;5083155;28;32394;-72
2021/04/26 10:27:40;;;;;;;7.30;2.17;;;;;;;;;;5082193;28;32849;-69
2021/04/26 10:30:10;;;;;;;3.78;2.35;;;;;;;;;;5082615;28;31817;-69
2021/04/26 10:32:54;;;;;;;2.08;0.75;;;;;;;;;;5082594;28;33383;-69
2021/04/26 10:35:21;;;;;;;5.10;2.13;;;;;;;;;;5082540;28;32377;-77
2021/04/26 10:37:47;;;;;;;8.77;2.85;;;;;;;;;;5081255;28;32922;-74
2021/04/26 10:40:14;;;;;;;4.95;2.58;;;;;;;;;;5082383;28;32193;-69
2021/04/26 10:42:42;;;;;;;8.50;3.08;;;;;;;;;;5082252;28;32504;-68
2021/04/26 10:45:19;;;;;;;6.10;2.70;;;;;;;;;;5082112;28;33265;-70
2021/04/26 10:47:46;;;;;;;4.70;2.63;;;;;;;;;;5079515;28;31822;-74
2021/04/26 10:50:14;;;;;;;7.13;2.80;;;;;;;;;;5079935;28;30797;-71
2021/04/26 10:52:41;;;;;;;6.28;2.30;;;;;;;;;;5082688;28;33606;-73
2021/04/26 10:55:27;;;;;;;3.33;1.85;;;;;;;;;;5082421;28;33200;-72
2021/04/26 10:57:57;;;;;;;5.03;1.60;;;;;;;;;;5081617;28;31234;-70
2021/04/26 11:00:22;;;;;;;0.85;0.47;;;;;;;;;;5081885;28;32059;-72
2021/04/26 11:02:49;;;;;;;7.25;2.13;;;;;;;;;;5079481;28;32581;-75
2021/04/26 11:05:25;;;;;;;6.75;2.72;;;;;;;;;;5081387;28;33259;-71
2021/04/26 11:07:58;;;;;;;15.95;2.75;;;;;;;;;;5081983;28;32896;-71
2021/04/26 11:10:38;;;;;;;1.70;0.85;;;;;;;;;;5081928;28;32167;-70
2021/04/26 11:13:22;;;;;;;4.57;2.03;;;;;;;;;;5079256;28;32585;-72
2021/04/26 11:16:17;;;;;;;3.10;1.98;;;;;;;;;;5079162;28;32317;-68
2021/04/26 11:18:58;;;;;;;14.23;2.78;;;;;;;;;;5080111;28;31869;-69
2021/04/26 11:21:47;;;;;;;0.80;0.77;;;;;;;;;;5081370;28;32069;-71
2021/04/26 11:24:33;;;;;;;2.95;1.15;;;;;;;;;;5076608;28;31362;-69
2021/04/26 11:27:08;;;;;;;10.40;4.07;;;;;;;;;;5080833;28;37272;-71
2021/04/26 11:29:44;;;;;;;2.53;1.50;;;;;;;;;;5078828;28;32156;-71
2021/04/26 11:32:10;;;;;;;1.90;1.20;;;;;;;;;;5081571;28;32164;-72
2021/04/26 11:34:44;;;;;;;16.17;2.95;;;;;;;;;;5081780;28;32419;-72
2021/04/26 11:37:10;;;;;;;3.63;1.83;;;;;;;;;;5078768;28;32328;-68
2021/04/26 11:39:37;;;;;;;1.38;0.80;;;;;;;;;;5081177;28;31901;-72
2021/04/26 11:42:04;;;;;;;3.22;1.13;;;;;;;;;;5080933;28;33056;-68
2021/04/26 11:44:32;;;;;;;0.20;0.20;;;;;;;;;;5078428;28;33315;-68
2021/04/26 11:47:05;;;;;;;3.92;1.58;;;;;;;;;;5081223;28;32146;-69
2021/04/26 11:49:44;;;;;;;5.82;3.50;;;;;;;;;;5081050;28;32897;-72
2021/04/26 11:52:20;;;;;;;5.60;2.35;;;;;;;;;;5080758;28;40262;-74
2021/04/26 11:54:47;;;;;;;11.50;4.13;;;;;;;;;;5081096;28;32524;-75
2021/04/26 11:57:20;;;;;;;1.52;0.65;;;;;;;;;;5081184;28;32985;-73
2021/04/26 11:59:46;;;;;;;;;;;;;;;;;;5082029;28;32027;-70
2021/04/26 12:02:11;;;;;;;8.82;4.05;;;;;;;;;;5080695;28;33230;-73
2021/04/26 12:04:41;;;;;;;9.98;4.35;;;;;;;;;;5081162;28;32699;-70
2021/04/26 12:07:08;;;;;;;8.80;3.38;;;;;;;;;;5081191;28;33274;-72
2021/04/26 12:09:34;;;;;;;9.02;4.18;;;;;;;;;;5081125;28;31954;-71
2021/04/26 12:12:00;;;;;;;6.93;4.57;;;;;;;;;;5081208;28;31752;-74
2021/04/26 12:14:26;;;;;;;11.27;4.25;;;;;;;;;;5081052;28;33602;-71
2021/04/26 12:16:52;;;;;;;13.75;5.05;;;;;;;;;;5080619;28;32286;-72
2021/04/26 12:19:30;;;;;;;9.13;4.30;;;;;;;;;;5080651;28;31969;-70
2021/04/26 12:21:56;;;;;;;25.42;5.55;;;;;;;;;;5081142;28;32022;-70
2021/04/26 12:24:22;;;;;;;9.45;4.13;;;;;;;;;;5080908;28;32562;-72
2021/04/26 12:26:47;;;;;;;7.32;3.85;;;;;;;;;;5080640;28;32880;-70
2021/04/26 12:29:29;;;;;;;11.15;4.85;;;;;;;;;;5078013;28;31942;-74
2021/04/26 12:32:07;;;;;;;7.18;3.08;;;;;;;;;;5080772;28;31971;-72
2021/04/26 12:34:44;;;;;;;10.82;4.90;;;;;;;;;;5080802;28;32549;-73
2021/04/26 12:37:10;;;;;;;11.27;4.93;;;;;;;;;;5078307;28;33320;-71
2021/04/26 12:39:36;;;;;;;10.48;4.43;;;;;;;;;;5080910;28;32157;-71
2021/04/26 12:42:08;;;;;;;10.70;3.78;;;;;;;;;;5080386;28;31887;-71
2021/04/26 12:44:34;;;;;;;7.90;4.45;;;;;;;;;;5080753;28;32597;-72
2021/04/26 12:47:13;;;;;;;11.55;4.38;;;;;;;;;;5080572;28;32161;-72
2021/04/26 12:49:39;;;;;;;7.90;4.40;;;;;;;;;;5078015;28;32006;-71
2021/04/26 12:52:11;;;;;;;7.95;4.03;;;;;;;;;;5080179;28;32883;-71
2021/04/26 12:54:37;;;;;;;8.98;4.25;;;;;;;;;;5080564;28;33588;-71
2021/04/26 12:57:03;;;;;;;6.10;3.63;;;;;;;;;;5080500;28;32268;-71
2021/04/26 12:59:54;;;;;;;14.57;4.85;;;;;;;;;;5080420;28;31950;-71
2021/04/26 13:02:28;;;;;;;6.88;3.38;;;;;;;;;;5080041;28;32123;-72
2021/04/26 13:04:55;;;;;;;12.52;4.45;;;;;;;;;;5080017;28;33193;-72
2021/04/26 13:07:20;;;;;;;10.50;4.13;;;;;;;;;;5079975;28;33216;-71
2021/04/26 13:09:46;;;;;;;6.40;3.67;;;;;;;;;;5080735;28;32063;-78
2021/04/26 13:12:12;;;;;;;8.07;3.72;;;;;;;;;;5080100;28;32534;-73
2021/04/26 13:14:38;;;;;;;8.38;3.85;;;;;;;;;;5083699;28;33240;-72
2021/04/26 13:17:07;;;;;;;6.95;2.50;;;;;;;;;;5083355;28;33261;-77
2021/04/26 13:19:33;;;;;;;13.50;4.57;;;;;;;;;;5084012;28;31936;-75
2021/04/26 13:21:59;;;;;;;11.38;3.90;;;;;;;;;;5083283;28;33050;-76
2021/04/26 13:24:26;;;;;;;8.23;4.20;;;;;;;;;;5084684;28;32463;-76
2021/04/26 13:26:56;;;;;;;6.18;4.22;;;;;;;;;;5083936;28;32041;-74
2021/04/26 13:29:22;;;;;;;6.18;2.05;;;;;;;;;;5083619;28;31974;-72
2021/04/26 13:31:49;;;;;;;9.82;2.97;;;;;;;;;;5083642;28;32045;-72
2021/04/26 13:34:15;;;;;;;5.10;2.58;;;;;;;;;;5080808;28;32554;-71
2021/04/26 13:36:42;;;;;;;1.30;0.73;;;;;;;;;;5083106;28;32778;-73
2021/04/26 13:39:10;;;;;;;12.98;5.15;;;;;;;;;;5083094;28;32798;-71
2021/04/26 13:41:36;;;;;;;7.05;4.45;;;;;;;;;;5083362;28;31964;-72
2021/04/26 13:44:01;;;;;;;3.30;2.08;;;;;;;;;;5083304;28;32621;-73
2021/04/26 13:46:28;;;;;;;2.45;1.42;;;;;;;;;;5083825;28;32279;-79
2021/04/26 13:48:53;;;;;;;3.03;1.73;;;;;;;;;;5086985;28;31669;-78
2021/04/26 13:51:19;;;;;;;5.28;2.05;;;;;;;;;;5083877;28;31991;-76
2021/04/26 13:53:45;;;;;;;11.23;4.15;;;;;;;;;;5083693;28;32473;-74
2021/04/26 13:56:11;;;;;;;9.90;4.60;;;;;;;;;;5083536;28;32423;-74
2021/04/26 13:58:37;;;;;;;11.18;4.35;;;;;;;;;;5080717;28;38632;-76
2021/04/26 14:01:03;;;;;;;9.13;3.63;;;;;;;;;;5083570;28;32195;-74
2021/04/26 14:03:29;;;;;;;21.60;4.80;;;;;;;;;;5082875;28;33553;-74
2021/04/26 14:05:54;;;;;;;3.63;1.90;;;;;;;;;;5084110;28;32393;-72
2021/04/26 14:08:20;;;;;;;12.68;4.38;;;;;;;;;;5083780;28;33076;-74
2021/04/26 14:10:46;;;;;;;12.75;4.05;;;;;;;;;;5083812;28;32732;-74
2021/04/26 14:13:12;;;;;;;7.00;4.03;;;;;;;;;;5083046;28;32539;-77
2021/04/26 14:15:37;;;;;;;12.20;4.05;;;;;;;;;;5083664;28;32882;-76
2021/04/26 14:18:03;;;;;;;;;;;;;;;;;;5084262;28;31960;-78
2021/04/26 14:20:28;;;;;;;;;;;;;;;;;;5083981;28;32240;-75
2021/04/26 14:22:54;;;;;;;;;;;;;;;;;;5086528;28;32902;-75
2021/04/26 14:25:19;;;;;;;;;;;;;;;;;;5086946;28;32725;-74
2021/04/26 14:27:45;;;;;;;;;;;;;;;;;;5087827;28;32754;-73
2021/04/26 14:30:10;;;;;;;;;;;;;;;;;;5092370;28;32251;-74
2021/04/26 14:32:37;;;;;;;;;;;;;;;;;;5091407;28;32912;-75
2021/04/26 14:35:02;;;;;;;;;;;;;;;;;;5085243;28;32575;-74
2021/04/26 14:37:28;;;;;;;7.15;3.92;;;;;;;;;;5084621;28;31895;-78
2021/04/26 14:39:54;;;;;;;6.47;3.70;;;;;;;;;;5081998;28;31700;-78
2021/04/26 14:42:19;;;;;;;6.75;3.55;;;;;;;;;;5083595;28;32497;-76
2021/04/26 14:44:45;;;;;;;4.25;2.42;;;;;;;;;;5082970;28;32508;-74
2021/04/26 14:47:11;;;;;;;9.88;4.60;;;;;;;;;;5080202;28;31963;-78
2021/04/26 14:49:36;;;;;;;6.80;4.32;;;;;;;;;;5082902;28;32550;-75
2021/04/26 14:52:02;;;;;;;10.40;3.47;;;;;;;;;;5079960;28;32635;-75
2021/04/26 14:54:28;;;;;;;12.80;4.95;;;;;;;;;;5083373;28;32495;-82
2021/04/26 14:56:53;;;;;;;7.07;4.22;;;;;;;;;;5082368;28;31890;-73
2021/04/26 14:59:20;;;;;;;16.23;5.38;;;;;;;;;;5081799;28;32971;-73